»·PEaware :: N3610E KSBA-KSMX

N3610E :: KSBA-KSMX

FLIGHT INFORMATION

Flight Status: Arrived
Operator: Privately registered:
United States
More flights under this callsign
Pilot: John C. (12173)
Aircraft: CESSNA 172 SKYHAWK
(C172)
More flights by this aircraft type
Origin: KSBA Santa Barbara Mun
United States
Destination: KSMX Santa Maria Pub/Capt Hancock
United States
More flights between these airports :: More routes between these airports
Route: HABUT4 GVO V27 ORCUT
File this flight plan on PilotEdge
Remarks:
Altitude:
(Current/Filed)
6,000ft
Speed:
(Current/Filed)
100kts
Departed: 08-Jun-17 09:00 PM
Arrived: 08-Jun-17 09:53 PM
Distance/Time
Traveled:
41nm/0:52
Distance/Time
To Go:
Arrived

Flight Plot

Page will automatically refresh every two minutes.

Flight plan parsing failed; only flown route is shown


Map Options




Map Legend


Flown Route
Filed Route
Departure Airport
Arrival Airport
Navaid (VOR, NDB)
Fix

Horizontal Profiles

Position Reports

Time Latitude Longitude Heading Altitude Ground
Speed
08-Jun-17 20:54 34.432561 -119.835089 71 14ft 0kts
08-Jun-17 20:55 34.432561 -119.835089 71 14ft 0kts
08-Jun-17 20:56 34.432561 -119.835089 71 14ft 0kts
08-Jun-17 20:57 34.432561 -119.835089 71 14ft 0kts
08-Jun-17 20:58 34.432561 -119.835089 71 14ft 0kts
08-Jun-17 20:59 34.430889 -119.835345 179 12ft 12kts
08-Jun-17 21:00 34.428893 -119.835318 173 11ft 0kts
08-Jun-17 21:01 34.427889 -119.835628 269 11ft 0kts
08-Jun-17 21:02 34.428740 -119.856319 269 620ft 87kts
08-Jun-17 21:03 34.430363 -119.884773 270 1771ft 85kts
08-Jun-17 21:04 34.431358 -119.913823 270 2851ft 86kts
08-Jun-17 21:05 34.433865 -119.942364 270 3861ft 87kts
08-Jun-17 21:06 34.441400 -119.968245 312 4845ft 88kts
08-Jun-17 21:07 34.458964 -119.990834 304 5747ft 90kts
08-Jun-17 21:08 34.479691 -120.014734 311 6069ft 110kts
08-Jun-17 21:09 34.498849 -120.041468 311 5987ft 108kts
08-Jun-17 21:10 34.517880 -120.067107 305 5943ft 103kts
08-Jun-17 21:11 34.532813 -120.093890 291 5930ft 100kts
08-Jun-17 21:12 34.556037 -120.112785 319 5960ft 104kts
08-Jun-17 21:13 34.580102 -120.130499 320 6000ft 104kts
08-Jun-17 21:14 34.602997 -120.150390 317 6041ft 104kts
08-Jun-17 21:15 34.625286 -120.170534 316 6000ft 104kts
08-Jun-17 21:16 34.646301 -120.192562 318 5941ft 104kts
08-Jun-17 21:17 34.668134 -120.213107 315 5889ft 103kts
08-Jun-17 21:18 34.690882 -120.231312 315 5905ft 102kts
08-Jun-17 21:19 34.711487 -120.251285 313 5946ft 102kts
08-Jun-17 21:20 34.730525 -120.272259 309 5736ft 101kts
08-Jun-17 21:21 34.749538 -120.291960 315 5443ft 101kts
08-Jun-17 21:22 34.767097 -120.309551 315 5154ft 100kts
08-Jun-17 21:23 34.781873 -120.325512 312 4903ft 98kts
08-Jun-17 21:24 34.795707 -120.340644 313 4657ft 97kts
08-Jun-17 21:25 34.808380 -120.355982 311 4420ft 96kts
08-Jun-17 21:26 34.820114 -120.371063 310 4195ft 95kts
08-Jun-17 21:27 34.833003 -120.386503 314 3915ft 95kts
08-Jun-17 21:28 34.845884 -120.400865 315 3634ft 94kts
08-Jun-17 21:29 34.858690 -120.415330 312 3360ft 95kts
08-Jun-17 21:30 34.870931 -120.430163 312 3372ft 90kts
08-Jun-17 21:31 34.883823 -120.444399 314 3380ft 93kts
08-Jun-17 21:32 34.897477 -120.459124 321 3395ft 92kts
08-Jun-17 21:33 34.910845 -120.475344 321 3368ft 93kts
08-Jun-17 21:34 34.925921 -120.491089 310 3379ft 92kts
08-Jun-17 21:35 34.940271 -120.508957 319 3379ft 92kts
08-Jun-17 21:36 34.956340 -120.526303 319 3368ft 91kts
08-Jun-17 21:37 34.974258 -120.543431 317 3352ft 91kts
08-Jun-17 21:38 34.992770 -120.564545 310 3334ft 91kts
08-Jun-17 21:39 35.010714 -120.586297 313 3330ft 90kts
08-Jun-17 21:40 35.028517 -120.608430 314 3320ft 91kts
08-Jun-17 21:41 35.046897 -120.630101 312 3295ft 91kts
08-Jun-17 21:42 35.064837 -120.651419 311 3296ft 90kts
08-Jun-17 21:43 35.082565 -120.673231 315 3294ft 90kts
08-Jun-17 21:44 35.103854 -120.683362 36 3305ft 107kts
08-Jun-17 21:45 35.090958 -120.658554 178 3391ft 106kts
08-Jun-17 21:46 35.061932 -120.646566 159 3339ft 113kts
08-Jun-17 21:47 35.037679 -120.622742 134 3106ft 114kts
08-Jun-17 21:48 35.017273 -120.595654 126 2876ft 111kts
08-Jun-17 21:49 34.997889 -120.571162 138 2737ft 110kts
08-Jun-17 21:50 34.980933 -120.552071 133 2442ft 109kts
08-Jun-17 21:51 34.964350 -120.531290 139 1956ft 109kts
08-Jun-17 21:52 34.944858 -120.508373 136 1376ft 107kts
08-Jun-17 21:53 34.923670 -120.482620 139 815ft 103kts
08-Jun-17 21:54 34.905282 -120.460705 135 318ft 74kts
08-Jun-17 21:55 34.897392 -120.451082 75 245ft 4kts
08-Jun-17 21:56 34.899216 -120.450356 348 245ft 13kts
08-Jun-17 21:57 34.899550 -120.450471 338 244ft 0kts
08-Jun-17 21:58 34.899550 -120.450471 338 244ft 0kts

Navigation Log

Ident Type
Flight plan parsing failed, navigation log unavailable